Share

Arco, MN

KMNIVANH2 Elev 1754 ft | 44.39 °N, 96.24 °W | Change Station
Active Advisory: Fire Weather Watch

Current weather conditions updated 0 second ago

Clear
Clear
55.3 °F
Feels Like 55.3 °F
N
5.2
Wind Variable Wind from East
Gusts 6.0 mph
Sunrise 6:30 AM
Sunset 8:16 PM
Moon Waning Gibbous

Today is forecast to be Much Warmer than yesterday. .

Pressure 29.89 in
Visibility 10.0 miles
Clouds Clear
Dew Point 50 °F
Humidity 81%
Rainfall 0.00 in
Snow Depth Not available.
UV 0.0 out of 16
Pollen 10.50 out of 12
Air Quality Not available.
Flu Activity Sporadic
METAR KMML 210455Z AUTO 12010KT 10SM CLR 16/11 A2989 RMK AO1

More Conditions Fewer Conditions

Pressure 29.89 in
Visibility 10.0 miles
Clouds Clear
Dew Point 50 °F
Humidity 81%
Rainfall 0.00 in
Snow Depth Not available.
UV 0.0 out of 16
Pollen 10.50 out of 12
Air Quality Not available.
Flu Activity Sporadic
METAR KMML 210455Z AUTO 12010KT 10SM CLR 16/11 A2989 RMK AO1

More Conditions Fewer Conditions

10-Day Weather Forecast

Almanac

Astronomy

Apr. 21, 2014 Rise Set
Actual Time 6:30 AM CDT 8:16 PM CDT
Civil Twilight 6:00 AM CDT 8:47 PM CDT
Nautical Twilight 5:22 AM CDT 9:25 PM CDT
Astronomical Twilight 4:41 AM CDT 10:06 PM CDT
Moon 1:51 AM CDT 11:55 AM CDT
Length of Visible Light 14h 47m
Length of Day
13h 45m
Tomorrow will be 2m 52s longer.
Waning Gibbous, 63% of the Moon is Illuminated
Today
Waning Gibbous
Apr 22
Last Quarter
Apr 29
New
May 6
First Quarter
May 14
Full

Today's Extremes

State Highs State Lows

Community

  • Snowy Robin
    Snowy Robin
  • Sun Pillar and Geese
    Sun Pillar and Geese
  • Showers on the Way
    Showers on the Way
  • Easter Morning Fog
    Easter Morning Fog
  • Easter Dance
    Easter Dance

WunderPhotos

Upload Photos

1,703,561 photos uploaded!

WunderBlogs® & News

Nearby

Snow Depth

Station Depth Elevation
No new snow has been reported.

Coastal Water Temperatures

Place Temperature
No Stations Reporting

Earthquake Activity

City Distance Mag. Time & Date
No recent earthquake activity has been reported nearby.
Minimum magnitude displayed is 2.5.

Nearby Weather Stations

Station Location Temp. Dew Point Humidity Wind Precip. Elev Updated Type
Ivanhoe, MN 55.3 °F 50 °F 81% East  at  5.2 mph 0.00 in / hr 1754 ft 12:17 AM CDT Rapid Fire
Tyler, MN 55.3 °F 52 °F 88% West  at  1.0 mph 0.00 in / hr 1752 ft 12:10 AM CDT Normal
Madison Ave N, Minneota, MN 55.2 °F 42 °F 62% SE  at  0.0 mph 0.00 in / hr 1165 ft 12:17 AM CDT Rapid Fire
Rock Lake, Balaton, MN 58.8 °F 53 °F 82% East  at  6.9 mph 0.00 in / hr 1568 ft 12:17 AM CDT Rapid Fire
Elkton, SD, Elkton, SD 59.4 °F 53 °F 80% East  at  12.0 mph 0.00 in / hr 1702 ft 12:17 AM CDT Rapid Fire
Samuel Luth. School, Marshall, MN 60.7 °F 54 °F 79% ESE  at  9.0 mph 0.00 in / hr 1145 ft 12:17 AM CDT Rapid Fire

Show More Stations Show Fewer Stations

What do you think?

We're not finished. Please let us know what you like, what you don't like, and what you are still missing.